POGODA: Poland

Lotnisko: Katowice-Pyrzowice

METAR KOD: EPKT


METAR: EPKT 241100Z 06012KT 9999 FEW045 21/10 Q1018


BLOK
Pogoda METAR
241100Z
Dzien: 24, Godzina: 11:00 UTC.
06012KT
Wiatr z kierunku 060, o predkosci 22 km/h
9999
Widzialnosc pozioma ponad 10 km.
FEW045
1/8 - 2/8 pokrycia nieba, chmurami o podstawie: 1350 metrow
21/10
Temperatura: powietrze 21°C, punkt rosy 10°C . Wilgotnosc wzgledna 48 %
Q1018
Cisnienie: 1018 hPa

Pogoda na innym lotnisku

Pogoda Gdansk-Rebiechowo WEATHER Poland  
Pogoda Katowice WEATHER Poland  
Pogoda Krakow WEATHER Poland  
Pogoda Poznan WEATHER Poland  
Pogoda Rzeszow-Jasionka WEATHER Poland  
Pogoda Szczecin WEATHER Poland  
Pogoda Warszawa-Okecie WEATHER Poland  
Pogoda Wroclaw Ii WEATHER Poland  

Pogoda w inny kraju

Strona startowa

(C) by GREGOR 2007
Ogłoszenia Towarzyskie